createdAt,value
2022-10-02T00:00:03.834Z,7.13
2022-10-02T00:02:20.059Z,3.60
2022-10-02T00:04:33.217Z,7.03
2022-10-02T00:06:47.769Z,5.40
2022-10-02T00:09:03.419Z,5.03
2022-10-02T00:11:17.483Z,3.35
2022-10-02T00:13:34.464Z,4.72
2022-10-02T00:15:45.263Z,5.30
2022-10-02T00:17:58.569Z,3.13
2022-10-02T00:20:14.824Z,3.85
2022-10-02T00:22:43.016Z,3.30
2022-10-02T00:24:57.287Z,5.65
2022-10-02T00:27:15.663Z,4.07
2022-10-02T00:29:38.957Z,3.25
2022-10-02T00:31:54.001Z,3.50
2022-10-02T00:34:21.874Z,7.75
2022-10-02T00:36:42.370Z,3.22
2022-10-02T00:39:03.754Z,3.90
2022-10-02T00:41:41.841Z,4.53
2022-10-02T00:44:02.868Z,3.38
2022-10-02T00:46:35.767Z,3.35
2022-10-02T00:48:52.233Z,2.35
2022-10-02T00:51:12.288Z,3.28
2022-10-02T00:53:30.485Z,3.22
2022-10-02T00:55:49.827Z,3.22
2022-10-02T00:58:11.838Z,3.30
2022-10-02T01:00:23.142Z,3.50
2022-10-02T01:02:53.332Z,6.07
2022-10-02T01:05:04.022Z,4.00
2022-10-02T01:07:14.647Z,3.40
2022-10-02T01:09:22.880Z,5.82
2022-10-02T01:11:32.493Z,2.78
2022-10-02T01:13:40.799Z,3.63
2022-10-02T01:15:55.963Z,4.40
2022-10-02T01:18:10.569Z,3.92
2022-10-02T01:20:23.405Z,9.88
2022-10-02T01:22:40.270Z,6.00
2022-10-02T01:24:57.811Z,3.00
2022-10-02T01:27:06.039Z,3.13
2022-10-02T01:29:15.416Z,8.82
2022-10-02T01:31:25.117Z,3.60
2022-10-02T01:33:34.812Z,4.40
2022-10-02T01:35:43.786Z,5.40
2022-10-02T01:37:54.399Z,6.97
2022-10-02T01:40:10.504Z,3.55
2022-10-02T01:42:19.406Z,4.65
2022-10-02T01:44:28.661Z,3.58
2022-10-02T01:46:46.829Z,7.15
2022-10-02T01:49:05.105Z,10.32
2022-10-02T01:51:29.596Z,3.75
2022-10-02T01:53:47.491Z,3.60
2022-10-02T01:56:10.209Z,3.00
2022-10-02T01:58:25.157Z,5.68
2022-10-02T02:00:46.104Z,2.92
2022-10-02T02:03:02.649Z,3.78
2022-10-02T02:05:16.917Z,5.20
2022-10-02T02:07:35.786Z,5.30
2022-10-02T02:09:48.535Z,4.22
2022-10-02T02:12:09.165Z,4.50
2022-10-02T02:14:20.360Z,3.20
2022-10-02T02:16:35.094Z,4.55
2022-10-02T02:18:47.735Z,4.88
2022-10-02T02:20:58.928Z,3.15
2022-10-02T02:23:13.635Z,3.75
2022-10-02T02:25:24.612Z,4.18
2022-10-02T02:27:40.719Z,2.67
2022-10-02T02:29:51.710Z,5.93
2022-10-02T02:32:01.589Z,4.20
2022-10-02T02:34:14.719Z,3.45
2022-10-02T02:36:27.481Z,5.70
2022-10-02T02:38:40.898Z,3.65
2022-10-02T02:40:50.326Z,6.18
2022-10-02T02:43:06.549Z,5.82
2022-10-02T02:45:19.350Z,3.75
2022-10-02T02:47:32.225Z,6.68
2022-10-02T02:49:49.329Z,4.78
2022-10-02T02:51:59.991Z,9.88
2022-10-02T02:54:14.878Z,7.05
2022-10-02T02:56:28.629Z,4.30
2022-10-02T02:58:44.737Z,5.28
2022-10-02T03:00:54.877Z,5.53
2022-10-02T03:03:02.968Z,5.10
2022-10-02T03:05:16.795Z,6.60
2022-10-02T03:07:25.146Z,9.85
2022-10-02T03:09:37.599Z,5.38
2022-10-02T03:11:55.657Z,4.93
2022-10-02T03:14:20.761Z,5.50
2022-10-02T03:16:42.478Z,8.32
2022-10-02T03:19:05.553Z,5.43
2022-10-02T03:21:18.836Z,5.60
2022-10-02T03:23:32.731Z,4.28
2022-10-02T03:25:46.325Z,6.30
2022-10-02T03:27:59.470Z,5.45
2022-10-02T03:30:13.450Z,10.07
2022-10-02T03:32:23.267Z,6.82
2022-10-02T03:34:34.690Z,6.32
2022-10-02T03:36:44.901Z,5.50
2022-10-02T03:39:12.919Z,5.35
2022-10-02T03:41:26.164Z,7.28
2022-10-02T03:43:34.499Z,4.70
2022-10-02T03:45:51.474Z,4.57
2022-10-02T03:48:01.569Z,3.90
2022-10-02T03:50:10.692Z,6.18
2022-10-02T03:52:20.487Z,4.55
2022-10-02T03:54:34.141Z,7.15
2022-10-02T03:56:47.081Z,3.10
2022-10-02T03:59:02.879Z,4.63
2022-10-02T04:01:20.100Z,5.20
2022-10-02T04:03:32.402Z,5.97
2022-10-02T04:05:46.021Z,6.63
2022-10-02T04:07:58.273Z,4.20
2022-10-02T04:10:31.029Z,6.72
2022-10-02T04:12:43.442Z,3.67
2022-10-02T04:14:57.285Z,2.75
2022-10-02T04:17:13.994Z,3.30
2022-10-02T04:19:26.676Z,3.67
2022-10-02T04:21:45.986Z,4.00
2022-10-02T04:23:59.284Z,5.43
2022-10-02T04:26:14.024Z,3.65
2022-10-02T04:28:30.622Z,3.92
2022-10-02T04:30:38.667Z,7.53
2022-10-02T04:32:50.769Z,4.47
2022-10-02T04:34:58.850Z,3.92
2022-10-02T04:37:24.581Z,7.65
2022-10-02T04:39:46.889Z,4.10
2022-10-02T04:42:16.613Z,4.07
2022-10-02T04:44:40.177Z,3.30
2022-10-02T04:47:17.079Z,3.17
2022-10-02T04:49:52.835Z,3.67
2022-10-02T04:52:14.680Z,4.90
2022-10-02T04:54:44.463Z,5.35
2022-10-02T04:57:09.073Z,4.85
2022-10-02T04:59:31.343Z,3.45
2022-10-02T05:01:57.672Z,3.72
2022-10-02T05:04:26.120Z,4.70
2022-10-02T05:06:53.954Z,3.15
2022-10-02T05:09:15.466Z,2.60
2022-10-02T05:11:42.385Z,4.38
2022-10-02T05:14:08.158Z,2.80
2022-10-02T05:16:31.054Z,3.75
2022-10-02T05:18:55.359Z,5.47
2022-10-02T05:21:18.376Z,4.57
2022-10-02T05:23:43.797Z,3.35
2022-10-02T05:26:14.211Z,3.30
2022-10-02T05:28:44.806Z,3.40
2022-10-02T05:31:01.322Z,5.90
2022-10-02T05:33:48.351Z,3.95
2022-10-02T05:36:15.234Z,3.50
2022-10-02T05:38:40.649Z,5.30
2022-10-02T05:41:02.441Z,2.65
2022-10-02T05:43:14.952Z,3.10
2022-10-02T05:45:30.280Z,4.32
2022-10-02T05:47:45.236Z,4.22
2022-10-02T05:49:58.136Z,6.38
2022-10-02T05:52:10.141Z,5.65
2022-10-02T05:54:31.550Z,4.05
2022-10-02T05:56:46.268Z,6.85
2022-10-02T05:59:01.156Z,4.18
2022-10-02T06:01:14.875Z,4.50
2022-10-02T06:03:31.080Z,8.55
2022-10-02T06:05:50.533Z,3.92
2022-10-02T06:08:05.111Z,3.45
2022-10-02T06:10:19.452Z,4.72
2022-10-02T06:12:37.283Z,5.40
2022-10-02T06:14:50.805Z,4.30
2022-10-02T06:17:04.861Z,4.22
2022-10-02T06:19:17.447Z,6.32
2022-10-02T06:21:43.497Z,4.82
2022-10-02T06:23:55.156Z,7.18
2022-10-02T06:26:07.550Z,8.38
2022-10-02T06:28:23.941Z,5.18
2022-10-02T06:30:35.356Z,4.68
2022-10-02T06:32:49.613Z,5.18
2022-10-02T06:34:58.758Z,5.22
2022-10-02T06:37:45.101Z,8.38
2022-10-02T06:40:11.979Z,6.07
2022-10-02T06:42:30.337Z,5.80
2022-10-02T06:44:50.931Z,6.18
2022-10-02T06:47:11.067Z,8.50
2022-10-02T06:49:27.817Z,5.05
2022-10-02T06:51:47.658Z,9.05
2022-10-02T06:54:13.324Z,7.82
2022-10-02T06:56:48.144Z,6.47
2022-10-02T06:59:06.787Z,4.88
2022-10-02T07:01:27.617Z,5.68
2022-10-02T07:03:52.077Z,5.57
2022-10-02T07:06:26.813Z,4.97
2022-10-02T07:08:49.997Z,7.00
2022-10-02T07:11:08.137Z,6.65
2022-10-02T07:13:42.896Z,6.25
2022-10-02T07:16:27.887Z,5.70
2022-10-02T07:18:54.063Z,6.22
2022-10-02T07:21:13.210Z,5.35
2022-10-02T07:23:43.410Z,5.40
2022-10-02T07:26:07.495Z,6.80
2022-10-02T07:28:27.319Z,6.30
2022-10-02T07:30:46.286Z,4.93
2022-10-02T07:33:00.456Z,5.25
2022-10-02T07:35:28.157Z,4.82
2022-10-02T07:37:48.892Z,6.53
2022-10-02T07:40:21.358Z,5.03
2022-10-02T07:42:49.800Z,4.55
2022-10-02T07:45:18.946Z,5.35
2022-10-02T07:47:45.146Z,7.68
2022-10-02T07:49:59.599Z,7.75
2022-10-02T07:52:22.487Z,5.43
2022-10-02T07:54:58.778Z,4.78
2022-10-02T07:57:15.862Z,6.72
2022-10-02T07:59:24.615Z,7.85
2022-10-02T08:01:38.753Z,8.68
2022-10-02T08:03:50.914Z,5.20
2022-10-02T08:06:01.369Z,5.65
2022-10-02T08:08:19.961Z,5.13
2022-10-02T08:10:34.407Z,5.90
2022-10-02T08:12:48.251Z,8.32
2022-10-02T08:14:58.453Z,10.25
2022-10-02T08:17:18.462Z,6.28
2022-10-02T08:19:33.046Z,7.82
2022-10-02T08:21:48.851Z,8.90
2022-10-02T08:24:04.317Z,5.20
2022-10-02T08:26:18.019Z,4.30
2022-10-02T08:28:33.596Z,8.40
2022-10-02T08:30:41.853Z,6.75
2022-10-02T08:32:51.060Z,5.35
2022-10-02T08:35:00.867Z,5.85
2022-10-02T08:37:29.491Z,5.65
2022-10-02T08:40:01.653Z,5.80
2022-10-02T08:42:39.519Z,5.43
2022-10-02T08:45:11.717Z,7.28
2022-10-02T08:48:02.557Z,6.13
2022-10-02T08:50:57.363Z,4.32
2022-10-02T08:53:52.929Z,4.25
2022-10-02T08:56:20.773Z,3.25
2022-10-02T08:58:49.154Z,6.03
2022-10-02T09:01:08.365Z,5.40
2022-10-02T09:03:47.795Z,4.22
2022-10-02T09:06:43.523Z,5.13
2022-10-02T09:09:12.403Z,3.35
2022-10-02T09:11:54.394Z,4.60
2022-10-02T09:14:24.803Z,7.43
2022-10-02T09:16:42.239Z,6.10
2022-10-02T09:19:03.512Z,7.78
2022-10-02T09:21:22.235Z,6.72
2022-10-02T09:24:11.916Z,8.70
2022-10-02T09:26:47.164Z,6.00
2022-10-02T09:29:20.802Z,7.55
2022-10-02T09:31:54.130Z,6.45
2022-10-02T09:34:43.312Z,6.05
2022-10-02T09:37:16.953Z,5.65
2022-10-02T09:40:10.622Z,6.00
2022-10-02T09:42:51.770Z,5.93
2022-10-02T09:45:36.665Z,5.25
2022-10-02T09:48:30.520Z,4.72
2022-10-02T09:51:08.445Z,4.30
2022-10-02T09:53:53.205Z,5.20
2022-10-02T09:56:21.016Z,11.95
2022-10-02T09:59:07.555Z,6.45
2022-10-02T10:01:51.097Z,5.38
2022-10-02T10:04:15.406Z,6.70
2022-10-02T10:07:02.046Z,6.55
2022-10-02T10:09:42.611Z,5.75
2022-10-02T10:12:14.833Z,7.30
2022-10-02T10:14:57.762Z,6.82
2022-10-02T10:17:51.769Z,6.75
2022-10-02T10:20:26.153Z,7.32
2022-10-02T10:23:15.631Z,6.30
2022-10-02T10:25:52.889Z,8.00
2022-10-02T10:28:33.859Z,6.80
2022-10-02T10:31:12.226Z,6.15
2022-10-02T10:34:03.143Z,6.10
2022-10-02T10:36:51.858Z,7.05
2022-10-02T10:39:18.155Z,4.57
2022-10-02T10:42:13.981Z,4.80
2022-10-02T10:44:42.769Z,4.07
2022-10-02T10:47:08.063Z,3.50
2022-10-02T10:49:49.344Z,4.28
2022-10-02T10:52:14.052Z,3.78
2022-10-02T10:54:58.942Z,3.58
2022-10-02T10:57:22.574Z,3.55
2022-10-02T11:00:07.379Z,3.13
2022-10-02T11:02:57.502Z,3.50
2022-10-02T11:05:22.041Z,4.95
2022-10-02T11:07:47.493Z,3.65
2022-10-02T11:10:20.955Z,3.65
2022-10-02T11:13:07.823Z,2.80
2022-10-02T11:15:44.229Z,3.53
2022-10-02T11:18:12.909Z,2.85
2022-10-02T11:20:56.557Z,2.90
2022-10-02T11:23:42.543Z,3.80
2022-10-02T11:26:13.018Z,2.95
2022-10-02T11:28:46.983Z,2.35
2022-10-02T11:31:05.693Z,2.70
2022-10-02T11:33:39.785Z,2.50
2022-10-02T11:36:04.245Z,3.20
2022-10-02T11:38:26.707Z,2.28
2022-10-02T11:40:57.912Z,2.38
2022-10-02T11:43:18.007Z,2.60
2022-10-02T11:45:55.461Z,1.70
2022-10-02T11:48:21.151Z,1.70
2022-10-02T11:50:54.215Z,1.70
2022-10-02T11:53:17.536Z,1.90
2022-10-02T11:55:43.274Z,1.55
2022-10-02T11:58:05.988Z,1.40
2022-10-02T12:00:35.429Z,1.25
2022-10-02T12:02:51.220Z,1.52
2022-10-02T12:05:15.668Z,1.88
2022-10-02T12:07:36.198Z,1.60
2022-10-02T12:09:58.459Z,1.83
2022-10-02T12:12:22.502Z,3.00
2022-10-02T12:14:43.744Z,1.90
2022-10-02T12:17:19.272Z,2.40
2022-10-02T12:20:03.385Z,2.25
2022-10-02T12:22:36.442Z,2.30
2022-10-02T12:25:07.255Z,1.30
2022-10-02T12:27:24.854Z,2.05
2022-10-02T12:29:59.110Z,1.70
2022-10-02T12:32:15.019Z,1.40
2022-10-02T12:34:43.474Z,1.50
2022-10-02T12:36:59.454Z,1.73
2022-10-02T12:39:21.897Z,1.80
2022-10-02T12:41:59.182Z,1.35
2022-10-02T12:44:25.397Z,1.63
2022-10-02T12:47:17.511Z,2.15
2022-10-02T12:49:36.425Z,2.90
2022-10-02T12:52:02.756Z,3.22
2022-10-02T12:54:40.316Z,4.75
2022-10-02T12:57:11.272Z,1.95
2022-10-02T12:59:27.825Z,2.25
2022-10-02T13:02:10.693Z,2.72
2022-10-02T13:04:58.105Z,2.30
2022-10-02T13:07:37.613Z,2.35
2022-10-02T13:09:54.799Z,2.47
2022-10-02T13:12:15.994Z,2.00
2022-10-02T13:15:03.479Z,1.80
2022-10-02T13:17:23.899Z,1.70
2022-10-02T13:19:38.795Z,1.75
2022-10-02T13:22:00.029Z,1.60
2022-10-02T13:24:31.820Z,3.10
2022-10-02T13:26:49.114Z,2.70
2022-10-02T13:29:29.441Z,2.15
2022-10-02T13:31:50.082Z,1.60
2022-10-02T13:34:19.874Z,1.02
2022-10-02T13:36:37.002Z,1.65
2022-10-02T13:39:09.635Z,1.30
2022-10-02T13:41:32.011Z,1.73
2022-10-02T13:43:58.284Z,1.60
2022-10-02T13:46:24.181Z,1.50
2022-10-02T13:48:45.252Z,1.90
2022-10-02T13:51:03.098Z,1.60
2022-10-02T13:53:32.730Z,1.30
2022-10-02T13:55:48.240Z,0.90
2022-10-02T13:58:22.913Z,1.25
2022-10-02T14:00:58.486Z,1.10
2022-10-02T14:03:15.546Z,1.52
2022-10-02T14:05:36.602Z,1.05
2022-10-02T14:08:03.917Z,1.02
2022-10-02T14:10:22.410Z,1.45
2022-10-02T14:12:35.928Z,1.80
2022-10-02T14:15:07.286Z,1.48
2022-10-02T14:17:26.496Z,1.15
2022-10-02T14:19:54.211Z,1.55
2022-10-02T14:22:18.411Z,1.42
2022-10-02T14:24:59.014Z,1.85
2022-10-02T14:27:19.374Z,1.92
2022-10-02T14:29:55.320Z,1.30
2022-10-02T14:32:32.197Z,1.75
2022-10-02T14:35:20.219Z,1.27
2022-10-02T14:38:06.894Z,2.97
2022-10-02T14:40:17.894Z,2.10
2022-10-02T14:42:40.052Z,1.15
2022-10-02T14:45:21.787Z,1.40
2022-10-02T14:47:47.302Z,0.90
2022-10-02T14:50:08.914Z,1.13
2022-10-02T14:52:48.229Z,1.60
2022-10-02T14:55:19.363Z,1.80
2022-10-02T14:57:56.789Z,2.05
2022-10-02T15:00:17.683Z,1.90
2022-10-02T15:02:51.570Z,2.25
2022-10-02T15:05:07.729Z,2.72
2022-10-02T15:07:18.267Z,2.08
2022-10-02T15:09:33.267Z,2.22
2022-10-02T15:12:03.335Z,1.70
2022-10-02T15:14:16.810Z,2.10
2022-10-02T15:16:42.073Z,2.40
2022-10-02T15:19:02.558Z,2.83
2022-10-02T15:21:26.887Z,2.00
2022-10-02T15:23:47.283Z,1.90
2022-10-02T15:26:15.874Z,2.10
2022-10-02T15:28:36.724Z,1.90
2022-10-02T15:30:56.976Z,2.10
2022-10-02T15:33:18.241Z,1.92
2022-10-02T15:35:34.534Z,1.73
2022-10-02T15:37:50.522Z,1.92
2022-10-02T15:40:14.021Z,2.80
2022-10-02T15:42:41.551Z,3.00
2022-10-02T15:45:06.629Z,2.00
2022-10-02T15:47:41.895Z,4.60
2022-10-02T15:50:07.817Z,3.90
2022-10-02T15:52:33.293Z,4.55
2022-10-02T15:54:59.648Z,4.03
2022-10-02T15:57:32.608Z,5.20
2022-10-02T15:59:57.835Z,2.40
2022-10-02T16:02:22.666Z,1.48
2022-10-02T16:04:41.131Z,1.83
2022-10-02T16:07:21.852Z,6.22
2022-10-02T16:09:52.757Z,1.30
2022-10-02T16:12:23.604Z,1.38
2022-10-02T16:14:44.146Z,1.60
2022-10-02T16:17:39.482Z,1.80
2022-10-02T16:20:02.677Z,1.88
2022-10-02T16:22:23.226Z,5.22
2022-10-02T16:24:51.071Z,2.53
2022-10-02T16:27:22.420Z,2.55
2022-10-02T16:29:37.168Z,3.00
2022-10-02T16:32:07.697Z,2.67
2022-10-02T16:34:27.152Z,4.05
2022-10-02T16:36:44.446Z,2.40
2022-10-02T16:38:54.517Z,2.35
2022-10-02T16:41:21.053Z,2.45
2022-10-02T16:43:59.237Z,2.40
2022-10-02T16:46:13.886Z,2.58
2022-10-02T16:48:31.837Z,2.50
2022-10-02T16:51:08.615Z,2.95
2022-10-02T16:53:28.608Z,3.00
2022-10-02T16:55:41.626Z,2.92
2022-10-02T16:58:02.922Z,3.22
2022-10-02T17:00:19.364Z,2.92
2022-10-02T17:02:36.460Z,3.80
2022-10-02T17:04:52.131Z,4.10
2022-10-02T17:07:04.724Z,4.00
2022-10-02T17:09:20.418Z,4.10
2022-10-02T17:11:33.471Z,3.70
2022-10-02T17:13:58.665Z,4.28
2022-10-02T17:16:20.280Z,3.97
2022-10-02T17:18:37.213Z,4.75
2022-10-02T17:20:48.983Z,4.63
2022-10-02T17:23:05.878Z,5.47
2022-10-02T17:25:22.656Z,5.32
2022-10-02T17:27:45.423Z,4.90
2022-10-02T17:30:09.302Z,5.05
2022-10-02T17:32:36.877Z,4.65
2022-10-02T17:34:50.128Z,4.70
2022-10-02T17:37:25.814Z,4.40
2022-10-02T17:40:08.851Z,3.83
2022-10-02T17:42:28.403Z,3.58
2022-10-02T17:44:48.651Z,2.35
2022-10-02T17:47:46.298Z,2.90
2022-10-02T17:50:10.169Z,2.25
2022-10-02T17:52:42.424Z,2.80
2022-10-02T17:55:14.292Z,2.38
2022-10-02T17:57:40.384Z,2.60
2022-10-02T18:00:06.517Z,2.60
2022-10-02T18:02:26.004Z,3.53
2022-10-02T18:04:47.010Z,4.47
2022-10-02T18:07:15.644Z,3.90
2022-10-02T18:09:40.883Z,4.40
2022-10-02T18:12:24.208Z,4.38
2022-10-02T18:14:54.261Z,5.13
2022-10-02T18:17:19.153Z,4.50
2022-10-02T18:19:30.919Z,4.70
2022-10-02T18:21:50.436Z,4.40
2022-10-02T18:24:16.832Z,5.43
2022-10-02T18:26:34.610Z,3.60
2022-10-02T18:29:09.426Z,2.42
2022-10-02T18:31:54.219Z,2.33
2022-10-02T18:34:26.756Z,2.90
2022-10-02T18:36:51.113Z,2.70
2022-10-02T18:39:02.841Z,3.55
2022-10-02T18:41:27.847Z,3.17
2022-10-02T18:43:59.688Z,2.60
2022-10-02T18:46:18.868Z,2.25
2022-10-02T18:48:59.344Z,2.72
2022-10-02T18:51:22.184Z,2.80
2022-10-02T18:53:46.739Z,3.67
2022-10-02T18:56:08.940Z,5.40
2022-10-02T18:58:35.231Z,6.05
2022-10-02T19:01:17.709Z,5.35
2022-10-02T19:03:35.546Z,4.47
2022-10-02T19:05:52.413Z,3.45
2022-10-02T19:08:14.341Z,2.90
2022-10-02T19:10:29.800Z,2.40
2022-10-02T19:12:37.937Z,2.17
2022-10-02T19:14:49.131Z,2.25
2022-10-02T19:17:02.045Z,2.08
2022-10-02T19:19:12.108Z,2.00
2022-10-02T19:21:21.814Z,2.42
2022-10-02T19:23:37.442Z,2.33
2022-10-02T19:25:50.267Z,2.00
2022-10-02T19:27:59.925Z,3.33
2022-10-02T19:30:26.376Z,2.35
2022-10-02T19:32:40.490Z,2.40
2022-10-02T19:34:52.203Z,2.70
2022-10-02T19:37:02.621Z,3.40
2022-10-02T19:39:20.985Z,3.10
2022-10-02T19:41:29.166Z,4.43
2022-10-02T19:43:39.742Z,3.55
2022-10-02T19:45:56.848Z,3.63
2022-10-02T19:48:09.746Z,3.60
2022-10-02T19:50:23.478Z,3.17
2022-10-02T19:52:37.853Z,3.30
2022-10-02T19:54:48.140Z,5.13
2022-10-02T19:57:02.091Z,9.55
2022-10-02T19:59:17.962Z,2.65
2022-10-02T20:01:31.884Z,5.68
2022-10-02T20:03:41.028Z,2.92
2022-10-02T20:05:52.311Z,2.45
2022-10-02T20:08:06.983Z,2.60
2022-10-02T20:10:21.157Z,3.05
2022-10-02T20:12:34.714Z,2.63
2022-10-02T20:14:47.812Z,3.58
2022-10-02T20:17:10.825Z,5.10
2022-10-02T20:19:22.200Z,6.97
2022-10-02T20:21:41.551Z,12.90
2022-10-02T20:23:56.775Z,14.32
2022-10-02T20:26:10.329Z,11.02
2022-10-02T20:28:24.069Z,8.25
2022-10-02T20:30:37.941Z,6.63
2022-10-02T20:32:56.476Z,6.10
2022-10-02T20:35:14.310Z,6.97
2022-10-02T20:37:29.512Z,7.05
2022-10-02T20:39:40.374Z,6.05
2022-10-02T20:41:58.165Z,6.35
2022-10-02T20:44:07.205Z,6.20
2022-10-02T20:46:41.068Z,5.82
2022-10-02T20:49:20.541Z,5.68
2022-10-02T20:51:53.240Z,7.18
2022-10-02T20:54:29.317Z,7.50
2022-10-02T20:57:06.367Z,7.60
2022-10-02T20:59:45.597Z,8.40
2022-10-02T21:02:05.633Z,10.48
2022-10-02T21:04:43.585Z,9.77
2022-10-02T21:07:17.106Z,9.52
2022-10-02T21:09:51.025Z,8.25
2022-10-02T21:12:30.100Z,9.27
2022-10-02T21:15:11.791Z,8.57
2022-10-02T21:17:39.962Z,8.40
2022-10-02T21:20:49.577Z,8.50
2022-10-02T21:23:20.923Z,9.52
2022-10-02T21:25:53.179Z,9.25
2022-10-02T21:28:43.895Z,9.27
2022-10-02T21:31:05.836Z,9.00
2022-10-02T21:33:19.151Z,8.85
2022-10-02T21:35:45.743Z,8.70
2022-10-02T21:38:21.521Z,10.57
2022-10-02T21:41:10.674Z,12.18
2022-10-02T21:43:55.050Z,10.93
2022-10-02T21:46:42.973Z,9.82
2022-10-02T21:49:20.193Z,11.00
2022-10-02T21:52:03.194Z,11.43
2022-10-02T21:54:51.660Z,10.80
2022-10-02T21:57:43.865Z,11.32
2022-10-02T22:00:31.294Z,11.65
2022-10-02T22:03:35.896Z,13.18
2022-10-02T22:06:28.818Z,11.60
2022-10-02T22:08:51.846Z,13.80
2022-10-02T22:11:16.976Z,15.07
2022-10-02T22:13:31.231Z,14.55
2022-10-02T22:15:48.304Z,12.45
2022-10-02T22:18:02.905Z,9.77
2022-10-02T22:20:30.912Z,8.32
2022-10-02T22:22:55.089Z,7.88
2022-10-02T22:25:15.856Z,7.30
2022-10-02T22:27:59.692Z,7.05
2022-10-02T22:30:25.062Z,5.40
2022-10-02T22:33:13.928Z,6.72
2022-10-02T22:35:33.642Z,5.57
2022-10-02T22:38:04.446Z,6.78
2022-10-02T22:40:17.511Z,7.43
2022-10-02T22:42:32.307Z,7.15
2022-10-02T22:44:51.781Z,6.90
2022-10-02T22:47:10.438Z,7.05
2022-10-02T22:49:29.487Z,8.38
2022-10-02T22:51:44.032Z,8.50
2022-10-02T22:53:56.642Z,8.52
2022-10-02T22:56:04.570Z,10.68
2022-10-02T22:58:17.567Z,10.57
2022-10-02T23:00:29.689Z,10.80
2022-10-02T23:02:51.969Z,11.35
2022-10-02T23:05:08.519Z,13.30
2022-10-02T23:07:22.954Z,12.23
2022-10-02T23:09:39.174Z,11.45
2022-10-02T23:11:55.257Z,12.38
2022-10-02T23:14:08.589Z,12.88
2022-10-02T23:16:25.949Z,15.95
2022-10-02T23:18:45.120Z,13.32
2022-10-02T23:21:02.587Z,16.83
2022-10-02T23:23:19.760Z,12.32
2022-10-02T23:25:35.819Z,10.57
2022-10-02T23:27:51.358Z,10.52
2022-10-02T23:30:05.157Z,14.55
2022-10-02T23:32:24.202Z,10.30
2022-10-02T23:34:43.794Z,9.88
2022-10-02T23:36:57.351Z,11.30
2022-10-02T23:39:13.932Z,10.30
2022-10-02T23:41:40.755Z,9.20
2022-10-02T23:43:59.167Z,8.95
2022-10-02T23:46:14.718Z,8.95
2022-10-02T23:48:24.360Z,10.15
2022-10-02T23:50:43.534Z,8.15
2022-10-02T23:53:22.827Z,11.07
2022-10-02T23:55:53.219Z,9.68
2022-10-02T23:58:26.138Z,8.98
